Time;durP1;ratioP1;P1;durP2;ratioP2;P2;SDS_P1;SDS_P2;PMS_P1;PMS_P2;Temp;Humidity;BMP_temperature;BMP_pressure;BME280_temperature;BME280_humidity;BME280_pressure;Samples;Min_cycle;Max_cycle;Signal;HPM_P1;HPM_P2
2023/09/25 00:01:33;;;;;;;4.40;2.70;;;;;;;11.15;91.90;102092.41;6188249;23;20008;-71
2023/09/25 00:04:00;;;;;;;6.30;3.05;;;;;;;11.09;92.38;102089.72;6161895;23;20119;-71
2023/09/25 00:06:25;;;;;;;5.10;3.20;;;;;;;11.02;92.46;102088.81;6187366;23;20001;-71
2023/09/25 00:08:51;;;;;;;3.80;2.60;;;;;;;11.06;92.40;102100.19;6162360;23;20521;-71
2023/09/25 00:11:16;;;;;;;3.60;2.55;;;;;;;11.02;91.80;102090.53;6188087;23;20339;-71
2023/09/25 00:13:42;;;;;;;5.80;2.67;;;;;;;10.97;92.48;102092.28;6186943;23;20009;-71
2023/09/25 00:16:16;;;;;;;5.72;2.70;;;;;;;10.92;92.72;102100.13;6187274;23;20013;-70
2023/09/25 00:18:42;;;;;;;3.75;2.75;;;;;;;10.86;92.98;102094.81;6211402;23;20004;-71
2023/09/25 00:21:07;;;;;;;4.40;2.40;;;;;;;10.87;92.92;102096.56;6212412;23;20414;-71
2023/09/25 00:23:35;;;;;;;6.05;2.90;;;;;;;10.89;92.91;102094.88;6162571;23;20497;-70
2023/09/25 00:26:06;;;;;;;5.72;2.67;;;;;;;10.82;92.92;102095.66;6211628;23;20123;-70
2023/09/25 00:28:32;;;;;;;4.10;2.95;;;;;;;10.83;92.79;102095.69;6211967;23;20027;-71
2023/09/25 00:30:58;;;;;;;3.65;2.70;;;;;;;10.87;92.57;102107.06;6209636;23;20324;-71
2023/09/25 00:33:23;;;;;;;4.05;2.60;;;;;;;10.81;92.86;102102.66;6186412;23;20131;-71
2023/09/25 00:35:49;;;;;;;5.45;2.85;;;;;;;10.87;92.24;102100.06;6186588;23;20064;-71
2023/09/25 00:38:14;;;;;;;4.40;2.58;;;;;;;10.87;92.28;102086.09;6187448;23;20004;-70
2023/09/25 00:40:39;;;;;;;3.38;2.25;;;;;;;10.80;92.67;102097.41;6237981;23;20339;-69
2023/09/25 00:43:08;;;;;;;4.53;2.67;;;;;;;10.83;92.03;102094.78;6162283;23;20012;-71
2023/09/25 00:45:37;;;;;;;5.93;2.97;;;;;;;10.82;92.69;102099.19;6188044;23;20099;-70
2023/09/25 00:48:04;;;;;;;5.85;2.78;;;;;;;10.82;91.46;102090.41;6186742;23;20335;-71
2023/09/25 00:50:31;;;;;;;4.15;2.80;;;;;;;10.86;91.79;102098.34;6186727;23;20099;-71
2023/09/25 00:53:04;;;;;;;4.72;2.40;;;;;;;10.75;92.52;102097.38;6186963;23;20343;-71
2023/09/25 00:55:33;;;;;;;4.53;2.75;;;;;;;10.78;92.41;102092.16;6211985;23;20385;-71
2023/09/25 00:58:00;;;;;;;3.50;2.50;;;;;;;10.69;92.61;102095.56;6187338;23;20009;-70
2023/09/25 01:00:25;;;;;;;4.80;2.65;;;;;;;10.67;92.40;102091.19;6238137;23;20080;-71
2023/09/25 01:02:51;;;;;;;3.50;2.65;;;;;;;10.67;92.27;102094.66;6187117;23;20091;-70
2023/09/25 01:05:16;;;;;;;4.00;2.53;;;;;;;10.66;92.30;102100.81;6187437;23;20015;-70
2023/09/25 01:07:42;;;;;;;4.53;2.42;;;;;;;10.65;92.18;102095.56;6211788;23;20403;-70
2023/09/25 01:10:14;;;;;;;3.53;2.65;;;;;;;10.63;92.07;102098.16;6212095;23;20235;-71
2023/09/25 01:12:42;;;;;;;3.53;2.72;;;;;;;10.56;92.35;102094.59;6212664;23;20004;-71
2023/09/25 01:15:09;;;;;;;4.68;2.97;;;;;;;10.56;92.03;102098.97;6237985;23;20441;-71
2023/09/25 01:17:34;;;;;;;3.67;3.00;;;;;;;10.58;91.85;102102.47;6211359;23;20431;-71
2023/09/25 01:20:12;;;;;;;4.65;2.90;;;;;;;10.53;92.16;102107.69;6186961;23;20015;-70
2023/09/25 01:22:42;;;;;;;5.22;2.78;;;;;;;10.53;91.80;102107.69;6189478;23;20034;-71
2023/09/25 01:25:11;;;;;;;4.40;2.55;;;;;;;10.50;92.23;102104.13;6210759;23;20035;-71
2023/09/25 01:27:37;;;;;;;3.22;2.45;;;;;;;10.51;92.03;102092.81;6187353;23;20316;-71
2023/09/25 01:30:04;;;;;;;4.50;2.92;;;;;;;10.39;92.19;102090.97;6211656;23;20048;-71
2023/09/25 01:32:30;;;;;;;6.03;2.80;;;;;;;10.42;92.29;102087.50;6186986;23;20043;-71
2023/09/25 01:34:56;;;;;;;5.00;3.13;;;;;;;10.46;92.19;102089.25;6212098;23;20091;-71
2023/09/25 01:37:21;;;;;;;8.20;3.30;;;;;;;10.38;92.16;102089.19;6185082;23;20009;-71
2023/09/25 01:39:46;;;;;;;4.55;3.13;;;;;;;10.33;92.71;102086.50;6186145;23;20012;-71
2023/09/25 01:42:12;;;;;;;5.93;3.30;;;;;;;10.34;92.40;102079.53;6185838;23;20112;-71
2023/09/25 01:44:38;;;;;;;4.72;3.30;;;;;;;10.30;92.14;102089.09;6212020;23;20004;-71
2023/09/25 01:47:04;;;;;;;4.35;2.78;;;;;;;10.29;92.51;102084.72;6161913;23;20008;-71
2023/09/25 01:49:30;;;;;;;4.72;2.83;;;;;;;10.27;92.37;102083.84;6186070;23;20099;-70
2023/09/25 01:51:56;;;;;;;4.32;3.00;;;;;;;10.22;92.81;102086.38;6235814;23;20096;-71
2023/09/25 01:54:22;;;;;;;6.95;3.92;;;;;;;10.22;92.28;102088.16;6187239;23;20407;-70
2023/09/25 01:56:48;;;;;;;4.07;2.92;;;;;;;10.17;92.41;102089.81;6211990;23;20465;-71
2023/09/25 01:59:13;;;;;;;4.63;3.38;;;;;;;10.23;91.64;102085.53;6161818;23;20005;-71
2023/09/25 02:01:39;;;;;;;4.97;3.28;;;;;;;10.19;92.17;102083.75;6162887;23;20019;-71
2023/09/25 02:04:05;;;;;;;5.57;3.78;;;;;;;10.12;92.54;102078.44;6185372;23;20016;-71
2023/09/25 02:06:30;;;;;;;5.13;3.15;;;;;;;10.19;91.75;102085.50;6186466;23;20501;-70
2023/09/25 02:08:56;;;;;;;5.25;2.97;;;;;;;10.15;91.93;102074.09;6211713;23;20075;-71
2023/09/25 02:11:21;;;;;;;4.40;3.00;;;;;;;10.11;92.01;102076.69;6237300;23;20016;-71
2023/09/25 02:13:47;;;;;;;5.55;3.30;;;;;;;10.10;92.05;102088.00;6186998;23;20107;-70
2023/09/25 02:16:12;;;;;;;4.10;3.08;;;;;;;10.16;91.68;102088.09;6186136;23;20012;-70
2023/09/25 02:18:38;;;;;;;5.28;3.15;;;;;;;10.09;91.83;102078.41;6211201;23;20445;-71
2023/09/25 02:21:03;;;;;;;4.22;2.80;;;;;;;10.10;91.79;102072.28;6185752;23;20103;-70
2023/09/25 02:23:28;;;;;;;4.03;3.13;;;;;;;10.08;92.02;102071.41;6187232;23;20013;-70
2023/09/25 02:25:55;;;;;;;4.97;3.38;;;;;;;9.96;92.39;102080.03;6210645;23;20428;-69
2023/09/25 02:28:25;;;;;;;4.55;3.15;;;;;;;10.01;92.28;102076.59;6209002;23;20001;-68
2023/09/25 02:30:50;;;;;;;5.25;3.42;;;;;;;9.95;92.27;102066.03;6186697;23;20020;-68
2023/09/25 02:33:18;;;;;;;5.28;3.10;;;;;;;10.02;92.03;102070.47;6235530;23;20383;-71
2023/09/25 02:35:44;;;;;;;5.72;3.53;;;;;;;10.00;92.10;102068.72;6185763;23;20008;-71
2023/09/25 02:38:09;;;;;;;4.72;2.95;;;;;;;9.99;92.03;102075.69;6161308;23;20639;-68
2023/09/25 02:40:38;;;;;;;5.05;3.22;;;;;;;9.94;92.12;102072.16;6187012;23;20246;-68
2023/09/25 02:43:03;;;;;;;5.18;3.10;;;;;;;9.94;92.52;102069.53;6187133;23;20059;-70
2023/09/25 02:45:29;;;;;;;4.88;2.90;;;;;;;9.93;92.47;102070.41;6211478;23;20005;-68
2023/09/25 02:47:54;;;;;;;4.05;3.33;;;;;;;9.91;92.39;102073.84;6211017;23;20431;-69
2023/09/25 02:50:20;;;;;;;4.65;2.80;;;;;;;9.92;92.48;102073.00;6185648;23;20044;-69
2023/09/25 02:52:45;;;;;;;6.05;3.50;;;;;;;9.85;92.60;102072.03;6187185;23;20032;-68
2023/09/25 02:55:13;;;;;;;4.40;2.97;;;;;;;9.85;92.93;102075.53;6210587;23;20427;-68
2023/09/25 02:57:38;;;;;;;6.18;3.30;;;;;;;9.87;92.48;102072.97;6161427;23;20087;-68
2023/09/25 03:00:11;;;;;;;5.38;3.60;;;;;;;9.92;92.21;102073.00;6186658;23;20100;-69
2023/09/25 03:02:37;;;;;;;3.97;3.03;;;;;;;9.81;92.91;102072.88;6187734;23;20461;-69
2023/09/25 03:05:05;;;;;;;6.13;3.40;;;;;;;9.82;92.88;102069.41;6185903;23;20016;-68
2023/09/25 03:07:30;;;;;;;4.78;3.45;;;;;;;9.80;92.95;102079.00;6212618;23;20434;-68
2023/09/25 03:09:56;;;;;;;5.22;3.30;;;;;;;9.78;93.08;102078.06;6238849;23;20015;-69
2023/09/25 03:12:22;;;;;;;5.20;3.33;;;;;;;9.88;92.22;102074.69;6188653;23;20485;-68
2023/09/25 03:14:47;;;;;;;5.40;3.28;;;;;;;9.87;92.56;102072.97;6188722;23;20183;-70
2023/09/25 03:17:12;;;;;;;5.43;3.80;;;;;;;9.88;92.58;102079.94;6187836;23;20008;-68
2023/09/25 03:19:38;;;;;;;4.53;3.00;;;;;;;9.81;92.78;102081.63;6188351;23;20464;-68
2023/09/25 03:22:04;;;;;;;8.15;3.85;;;;;;;9.79;93.02;102079.84;6187143;23;20012;-69
2023/09/25 03:24:30;;;;;;;5.40;3.58;;;;;;;9.78;92.98;102078.06;6188440;23;20368;-71
2023/09/25 03:26:55;;;;;;;6.53;3.60;;;;;;;9.81;92.96;102078.09;6186863;23;20058;-71
2023/09/25 03:29:21;;;;;;;7.90;3.85;;;;;;;9.79;93.11;102072.84;6186505;23;20427;-70
2023/09/25 03:31:46;;;;;;;5.30;3.10;;;;;;;9.77;93.00;102071.06;6163058;23;20320;-70
2023/09/25 03:34:12;;;;;;;6.22;3.58;;;;;;;9.77;93.20;102076.31;6186978;23;20039;-70
2023/09/25 03:36:37;;;;;;;9.23;3.38;;;;;;;9.85;92.90;102069.44;6162308;23;20008;-70
2023/09/25 03:39:04;;;;;;;8.40;3.90;;;;;;;9.83;92.83;102065.94;6161219;23;20019;-71
2023/09/25 03:41:29;;;;;;;6.38;3.65;;;;;;;9.81;92.84;102067.63;6164241;23;20024;-71
2023/09/25 03:43:54;;;;;;;5.25;3.75;;;;;;;9.83;93.06;102065.94;6212718;23;20610;-71
2023/09/25 03:46:20;;;;;;;5.10;3.85;;;;;;;9.81;92.92;102072.88;6187800;23;20008;-70
2023/09/25 03:48:45;;;;;;;4.57;3.55;;;;;;;9.80;93.21;102072.00;6161957;23;20012;-70
2023/09/25 03:51:11;;;;;;;5.03;3.78;;;;;;;9.74;93.85;102073.66;6186161;23;20288;-70
2023/09/25 03:53:36;;;;;;;6.60;3.50;;;;;;;9.71;93.66;102080.63;6213171;23;20438;-71
2023/09/25 03:56:02;;;;;;;4.20;3.35;;;;;;;9.70;94.18;102078.00;6187281;23;20417;-70
2023/09/25 03:58:27;;;;;;;4.80;3.40;;;;;;;9.66;94.60;102081.44;6162756;23;20009;-71
2023/09/25 04:00:53;;;;;;;4.32;3.47;;;;;;;9.66;94.83;102082.31;6213736;23;20008;-71
2023/09/25 04:03:19;;;;;;;5.45;3.60;;;;;;;9.66;94.57;102077.06;6212314;23;20331;-71
2023/09/25 04:05:45;;;;;;;5.13;3.75;;;;;;;9.69;94.63;102084.94;6186780;23;20016;-71
2023/09/25 04:08:10;;;;;;;5.30;3.30;;;;;;;9.69;94.59;102089.31;6186386;23;20015;-71
2023/09/25 04:10:36;;;;;;;5.05;3.75;;;;;;;9.71;94.07;102078.00;6187320;23;20382;-71
2023/09/25 04:13:01;;;;;;;5.97;4.10;;;;;;;9.65;95.18;102088.38;6213121;23;20008;-71
2023/09/25 04:15:27;;;;;;;4.38;3.47;;;;;;;9.68;94.91;102088.44;6161961;23;20008;-71
2023/09/25 04:17:52;;;;;;;5.75;3.83;;;;;;;9.69;95.05;102084.94;6162145;23;20016;-71
2023/09/25 04:20:24;;;;;;;4.50;3.53;;;;;;;9.74;94.67;102084.13;6210818;23;20032;-71
2023/09/25 04:22:51;;;;;;;5.40;3.75;;;;;;;9.72;94.88;102084.13;6186888;23;20008;-71
2023/09/25 04:25:20;;;;;;;4.38;3.70;;;;;;;9.70;95.16;102086.72;6211245;23;20609;-70
2023/09/25 04:27:55;;;;;;;5.28;3.10;;;;;;;9.74;95.03;102087.66;6210887;23;20009;-71
2023/09/25 04:30:22;;;;;;;4.40;3.40;;;;;;;9.69;95.47;102082.34;6183417;23;20431;-70
2023/09/25 04:32:56;;;;;;;4.93;3.70;;;;;;;9.76;95.20;102079.81;6211057;23;20356;-71
2023/09/25 04:35:23;;;;;;;5.97;4.10;;;;;;;9.70;95.35;102086.72;6184498;23;20011;-71
2023/09/25 04:37:49;;;;;;;5.63;3.30;;;;;;;9.76;95.17;102087.66;6210583;23;20051;-71
2023/09/25 04:40:23;;;;;;;5.45;3.38;;;;;;;9.75;95.06;102081.53;6211992;23;20004;-71
2023/09/25 04:42:49;;;;;;;5.43;3.58;;;;;;;9.68;95.82;102095.41;6188547;23;20008;-70
2023/09/25 04:45:18;;;;;;;4.22;3.30;;;;;;;9.69;95.74;102091.94;6211618;23;20024;-70
2023/09/25 04:47:44;;;;;;;6.22;3.55;;;;;;;9.70;95.32;102093.69;6212194;23;20004;-71
2023/09/25 04:50:10;;;;;;;6.20;3.83;;;;;;;9.75;95.09;102097.22;6162024;23;20428;-70
2023/09/25 04:52:38;;;;;;;6.55;3.47;;;;;;;9.70;95.68;102097.19;6212214;23;20036;-71
2023/09/25 04:55:08;;;;;;;5.88;3.17;;;;;;;9.69;95.86;102094.56;6188054;23;20008;-71
2023/09/25 04:57:33;;;;;;;5.38;3.78;;;;;;;9.70;95.96;102088.47;6186972;23;20012;-71
2023/09/25 05:00:12;;;;;;;4.60;3.20;;;;;;;9.73;95.75;102104.19;6185784;23;20012;-71
2023/09/25 05:02:37;;;;;;;5.03;3.10;;;;;;;9.77;95.24;102098.16;6209719;23;20510;-70
2023/09/25 05:05:03;;;;;;;7.00;3.40;;;;;;;9.76;95.43;102095.50;6187339;23;20016;-71
2023/09/25 05:07:28;;;;;;;6.00;3.13;;;;;;;9.74;95.46;102087.66;6161770;23;20319;-71
2023/09/25 05:09:54;;;;;;;6.60;4.13;;;;;;;9.80;94.89;102097.31;6212984;23;20012;-71
2023/09/25 05:12:19;;;;;;;6.03;3.15;;;;;;;9.76;95.39;102085.91;6186349;23;20435;-71
2023/09/25 05:14:46;;;;;;;6.70;3.58;;;;;;;9.66;95.94;102090.16;6212576;23;20023;-71
2023/09/25 05:17:11;;;;;;;5.20;3.22;;;;;;;9.75;95.44;102093.75;6211356;23;20106;-71
2023/09/25 05:19:37;;;;;;;5.03;3.55;;;;;;;9.73;95.66;102104.19;6212488;23;20378;-71
2023/09/25 05:22:02;;;;;;;5.10;3.35;;;;;;;9.69;95.84;102100.66;6186796;23;20017;-71
2023/09/25 05:24:28;;;;;;;6.38;3.65;;;;;;;9.73;95.46;102095.47;6160180;23;20124;-71
2023/09/25 05:26:54;;;;;;;4.60;3.03;;;;;;;9.94;93.74;102106.19;6187629;23;20035;-71
2023/09/25 05:29:20;;;;;;;5.40;3.13;;;;;;;9.92;93.53;102105.28;6160266;23;20066;-71
2023/09/25 05:31:45;;;;;;;5.53;3.13;;;;;;;9.86;94.36;102097.38;6136758;23;20311;-70
2023/09/25 05:34:11;;;;;;;4.50;3.35;;;;;;;9.94;93.51;102105.31;6135297;23;20439;-71
2023/09/25 05:36:38;;;;;;;4.35;3.08;;;;;;;9.98;93.23;102107.09;6133733;23;20461;-69
2023/09/25 05:39:05;;;;;;;5.15;3.60;;;;;;;9.96;93.54;102100.97;6159583;23;20008;-69
2023/09/25 05:41:31;;;;;;;4.28;3.03;;;;;;;9.98;93.53;102107.97;6162244;23;20008;-68
2023/09/25 05:43:57;;;;;;;5.97;3.38;;;;;;;10.03;93.36;102110.66;6185532;23;20012;-69
2023/09/25 05:46:22;;;;;;;5.68;3.78;;;;;;;10.04;93.27;102113.28;6135722;23;20320;-69
2023/09/25 05:48:48;;;;;;;5.93;3.42;;;;;;;10.04;93.30;102112.38;6185995;23;20009;-71
2023/09/25 05:51:13;;;;;;;5.85;3.28;;;;;;;10.02;93.93;102108.88;6161707;23;20012;-71
2023/09/25 05:53:39;;;;;;;5.38;3.15;;;;;;;10.18;92.69;102113.41;6137663;23;20320;-71
2023/09/25 05:56:04;;;;;;;5.30;3.35;;;;;;;10.19;92.75;102106.47;6186460;23;20005;-71
2023/09/25 05:58:32;;;;;;;6.90;3.50;;;;;;;10.28;92.31;102111.78;6138047;23;20009;-71
2023/09/25 06:00:57;;;;;;;5.82;3.33;;;;;;;10.29;92.35;102113.53;6138925;23;20067;-71
2023/09/25 06:03:25;;;;;;;5.82;3.60;;;;;;;10.36;92.31;102111.91;6185885;23;20012;-71
2023/09/25 06:05:51;;;;;;;6.60;3.47;;;;;;;10.47;91.56;102122.47;6161796;23;20012;-72
2023/09/25 06:08:16;;;;;;;8.25;3.38;;;;;;;10.63;91.63;102116.50;6137525;23;20031;-71
2023/09/25 06:10:43;;;;;;;8.00;3.70;;;;;;;11.31;88.56;102119.59;6137289;23;20019;-71
2023/09/25 06:13:08;;;;;;;6.20;3.40;;;;;;;12.26;83.07;102115.59;6186744;23;20012;-71
2023/09/25 06:15:34;;;;;;;6.75;3.50;;;;;;;12.19;82.35;102126.97;6137018;23;20451;-71
2023/09/25 06:17:59;;;;;;;4.60;3.25;;;;;;;12.06;82.74;102124.31;6161658;23;20374;-70
2023/09/25 06:20:26;;;;;;;5.53;3.22;;;;;;;12.12;82.36;102120.81;6136661;23;20442;-71
2023/09/25 06:22:52;;;;;;;5.15;2.95;;;;;;;12.26;81.93;102123.47;6211243;23;20477;-71
2023/09/25 06:25:18;;;;;;;6.35;3.15;;;;;;;12.33;81.57;102127.88;6161691;23;20009;-71
2023/09/25 06:27:44;;;;;;;3.92;2.85;;;;;;;12.20;82.54;102128.75;6137926;23;20087;-71
2023/09/25 06:30:11;;;;;;;6.90;3.40;;;;;;;12.03;83.32;102142.69;6143060;23;20098;-71
2023/09/25 06:32:37;;;;;;;6.05;3.25;;;;;;;12.00;83.35;102139.19;6185841;23;20439;-71
2023/09/25 06:35:02;;;;;;;4.25;2.88;;;;;;;12.05;84.26;102125.19;6211131;23;20018;-71
2023/09/25 06:37:30;;;;;;;5.55;3.30;;;;;;;12.34;82.67;102126.13;6211415;23;20115;-71
2023/09/25 06:39:55;;;;;;;4.10;3.13;;;;;;;12.63;80.81;102124.38;6211782;23;20012;-72
2023/09/25 06:42:21;;;;;;;6.25;3.53;;;;;;;13.02;79.13;102134.91;6186051;23;20016;-72
2023/09/25 06:44:46;;;;;;;5.53;3.10;;;;;;;13.43;78.25;102135.72;6186270;23;20434;-70
2023/09/25 06:47:11;;;;;;;6.72;3.30;;;;;;;13.76;76.33;102125.94;6211195;23;20119;-72
2023/09/25 06:49:37;;;;;;;4.50;3.15;;;;;;;13.68;75.56;102134.75;6185692;23;20423;-71
2023/09/25 06:52:02;;;;;;;5.38;3.20;;;;;;;13.81;75.91;102129.44;6185785;23;20328;-71
2023/09/25 06:54:28;;;;;;;7.05;4.00;;;;;;;13.84;76.03;102135.56;6186270;23;20036;-69
2023/09/25 06:56:53;;;;;;;4.60;3.05;;;;;;;13.74;76.12;102123.31;6187078;23;20065;-72
2023/09/25 06:59:19;;;;;;;4.88;3.20;;;;;;;13.76;76.10;102126.81;6186452;23;20009;-72
2023/09/25 07:01:44;;;;;;;4.60;2.95;;;;;;;14.36;75.21;102130.88;6161734;23;20132;-72
2023/09/25 07:04:10;;;;;;;4.57;2.63;;;;;;;15.40;70.15;102133.47;6210856;23;20008;-71
2023/09/25 07:06:35;;;;;;;3.80;2.67;;;;;;;15.54;68.41;102131.56;6185558;23;20403;-71
2023/09/25 07:09:02;;;;;;;4.95;3.10;;;;;;;15.69;68.12;102137.56;6186419;23;20067;-71
2023/09/25 07:11:28;;;;;;;10.55;4.30;;;;;;;16.19;67.64;102133.41;6186147;23;20321;-71
2023/09/25 07:13:53;;;;;;;4.88;3.30;;;;;;;16.72;63.83;102121.97;6235880;23;20012;-71
2023/09/25 07:16:19;;;;;;;5.47;3.13;;;;;;;17.50;61.86;102130.28;6211124;23;20044;-71
2023/09/25 07:18:46;;;;;;;5.10;2.85;;;;;;;18.16;58.10;102128.00;6209806;23;20012;-71
2023/09/25 07:21:12;;;;;;;6.38;3.10;;;;;;;19.12;56.66;102137.16;6186274;23;20031;-71
2023/09/25 07:23:38;;;;;;;5.22;2.70;;;;;;;19.46;54.64;102135.34;6185255;23;20009;-71
2023/09/25 07:26:05;;;;;;;4.50;2.88;;;;;;;18.95;54.32;102134.94;6186310;23;20107;-71
2023/09/25 07:28:30;;;;;;;5.18;3.03;;;;;;;18.46;56.22;102138.78;6210918;23;20070;-72
2023/09/25 07:30:56;;;;;;;3.88;2.45;;;;;;;18.21;57.53;102133.22;6211032;23;20020;-71
2023/09/25 07:33:22;;;;;;;4.65;2.50;;;;;;;17.72;59.38;102129.84;6185015;23;20013;-72
2023/09/25 07:35:48;;;;;;;3.70;2.25;;;;;;;17.35;58.54;102133.22;6210587;23;20083;-72
2023/09/25 07:38:13;;;;;;;3.53;2.60;;;;;;;17.04;60.71;102126.75;6208111;23;20027;-71
2023/09/25 07:40:39;;;;;;;3.72;2.60;;;;;;;16.79;61.09;102136.84;6186158;23;20004;-72
2023/09/25 07:43:04;;;;;;;4.95;2.30;;;;;;;16.85;61.44;102136.75;6185492;23;20008;-72
2023/09/25 07:45:32;;;;;;;4.75;2.70;;;;;;;16.96;62.76;102132.16;6210538;23;20106;-72
2023/09/25 07:47:57;;;;;;;4.28;2.72;;;;;;;16.73;61.29;102129.00;6211227;23;20084;-72
2023/09/25 07:50:25;;;;;;;5.65;2.65;;;;;;;16.48;61.31;102129.44;6209980;23;20433;-72
2023/09/25 07:52:54;;;;;;;4.53;2.60;;;;;;;16.52;61.63;102125.84;6211412;23;20019;-72
2023/09/25 07:55:20;;;;;;;4.13;3.25;;;;;;;16.70;62.37;102129.06;6212961;23;20036;-72
2023/09/25 07:57:46;;;;;;;4.10;2.42;;;;;;;16.57;60.95;102131.91;6187761;23;20023;-72
2023/09/25 08:00:37;;;;;;;3.33;2.38;;;;;;;16.43;62.13;102128.63;6212652;23;20017;-72
2023/09/25 08:03:00;;;;;;;4.90;3.00;;;;;;;16.36;63.88;102135.75;6214453;23;20400;-72
2023/09/25 08:05:28;;;;;;;4.72;3.00;;;;;;;16.23;63.33;102140.38;6186176;23;20028;-72
2023/09/25 08:07:53;;;;;;;7.57;2.97;;;;;;;16.14;63.55;102145.78;6188228;23;20009;-71
2023/09/25 08:10:19;;;;;;;4.05;2.70;;;;;;;16.20;64.20;102140.41;6212202;23;20028;-72
2023/09/25 08:12:45;;;;;;;4.15;2.65;;;;;;;16.09;64.21;102140.56;6238215;23;20481;-72
2023/09/25 08:15:11;;;;;;;5.22;2.95;;;;;;;16.04;63.22;102149.47;6212588;23;20008;-72
2023/09/25 08:17:38;;;;;;;3.78;2.47;;;;;;;16.08;63.21;102140.59;6162425;23;20379;-71
2023/09/25 08:20:16;;;;;;;4.18;2.53;;;;;;;16.05;63.34;102145.94;6186847;23;20008;-72
2023/09/25 08:22:42;;;;;;;5.38;2.55;;;;;;;16.03;63.69;102145.06;6167984;23;20392;-72
2023/09/25 08:25:11;;;;;;;4.78;2.90;;;;;;;16.12;63.85;102139.66;6162914;23;20013;-71
2023/09/25 08:27:37;;;;;;;4.93;2.65;;;;;;;16.40;63.41;102133.94;6188232;23;20035;-71
2023/09/25 08:30:04;;;;;;;3.90;2.90;;;;;;;16.87;61.03;102127.00;6187725;23;20024;-71
2023/09/25 08:32:31;;;;;;;4.13;2.50;;;;;;;16.95;61.74;102135.72;6161820;23;20013;-71
2023/09/25 08:34:56;;;;;;;3.90;2.80;;;;;;;17.00;61.02;102133.00;6212543;23;20040;-71
2023/09/25 08:37:22;;;;;;;4.93;2.88;;;;;;;16.85;61.23;102134.13;6186933;23;20083;-71
2023/09/25 08:39:47;;;;;;;6.72;2.70;;;;;;;16.91;61.56;102134.03;6212355;23;20422;-71
2023/09/25 08:42:13;;;;;;;3.40;2.65;;;;;;;16.96;61.10;102129.50;6186801;23;20438;-71
2023/09/25 08:44:39;;;;;;;5.38;2.65;;;;;;;16.92;60.56;102130.50;6212254;23;20059;-71
2023/09/25 08:47:04;;;;;;;4.28;2.70;;;;;;;17.46;59.98;102125.94;6187655;23;20482;-71
2023/09/25 08:49:32;;;;;;;5.28;2.90;;;;;;;17.69;58.47;102116.66;6161727;23;20005;-72
2023/09/25 08:51:59;;;;;;;4.20;2.40;;;;;;;17.55;59.07;102120.44;6187080;23;20013;-71
2023/09/25 08:54:25;;;;;;;3.70;2.78;;;;;;;17.41;60.18;102118.09;6187848;23;20017;-71
2023/09/25 08:56:50;;;;;;;5.07;2.60;;;;;;;17.29;59.24;102124.47;6211683;23;20347;-72
2023/09/25 08:59:16;;;;;;;8.15;2.80;;;;;;;17.37;61.01;102124.34;6187341;23;20087;-71
2023/09/25 09:01:42;;;;;;;5.80;2.95;;;;;;;17.43;59.55;102120.72;6186756;23;20043;-72
2023/09/25 09:04:10;;;;;;;7.68;2.85;;;;;;;17.49;59.69;102116.13;6185233;23;20051;-71
2023/09/25 09:06:35;;;;;;;4.35;2.20;;;;;;;17.34;60.12;102127.06;6186558;23;20009;-72
2023/09/25 09:09:01;;;;;;;5.18;2.58;;;;;;;17.41;60.91;102122.50;6185583;23;20046;-72
2023/09/25 09:11:27;;;;;;;4.35;2.65;;;;;;;17.29;60.75;102119.19;6211087;23;20032;-71
2023/09/25 09:13:52;;;;;;;4.50;2.70;;;;;;;17.30;61.95;102113.00;6237781;23;20438;-71
2023/09/25 09:16:19;;;;;;;4.35;2.60;;;;;;;17.39;61.35;102116.38;6187255;23;20004;-72
2023/09/25 09:18:46;;;;;;;6.10;2.47;;;;;;;17.44;60.93;102125.09;6211043;23;20008;-72
2023/09/25 09:21:24;;;;;;;4.68;2.58;;;;;;;17.67;62.33;102109.59;6212187;23;20050;-71
2023/09/25 09:23:50;;;;;;;4.13;2.25;;;;;;;17.73;61.80;102108.59;6212456;23;20001;-71
2023/09/25 09:26:15;;;;;;;5.18;2.20;;;;;;;17.65;59.87;102113.19;6162515;23;20020;-72
2023/09/25 09:28:43;;;;;;;4.45;2.40;;;;;;;17.76;62.25;102112.97;6211621;23;20112;-71
2023/09/25 09:31:11;;;;;;;3.65;2.30;;;;;;;17.94;63.49;102107.28;6162493;23;20032;-70
2023/09/25 09:33:43;;;;;;;4.38;2.42;;;;;;;17.99;60.83;102104.53;6211760;23;20008;-71
2023/09/25 09:36:13;;;;;;;2.78;1.80;;;;;;;17.89;59.29;102109.13;6187496;23;20505;-71
2023/09/25 09:38:39;;;;;;;4.75;2.33;;;;;;;17.92;60.55;102109.09;6211697;23;20007;-71
2023/09/25 09:41:06;;;;;;;3.22;1.80;;;;;;;18.07;61.04;102107.00;6211928;23;20012;-72
2023/09/25 09:43:32;;;;;;;4.40;1.90;;;;;;;18.18;60.31;102104.97;6187049;23;20385;-71
2023/09/25 09:45:59;;;;;;;2.45;1.73;;;;;;;18.16;61.54;102102.34;6213945;23;20000;-71
2023/09/25 09:48:28;;;;;;;3.63;1.90;;;;;;;18.07;60.10;102107.84;6211383;23;20004;-71
2023/09/25 09:50:59;;;;;;;3.40;1.90;;;;;;;18.06;58.61;102119.41;6235717;23;20075;-72
2023/09/25 09:53:28;;;;;;;3.95;1.98;;;;;;;18.09;60.84;102119.31;6211938;23;20032;-71
2023/09/25 09:55:56;;;;;;;3.95;1.80;;;;;;;18.34;62.27;102124.91;6212585;23;20104;-72
2023/09/25 09:58:26;;;;;;;2.53;1.70;;;;;;;18.39;60.51;102118.63;6211804;23;20088;-71
2023/09/25 10:00:54;;;;;;;2.85;1.80;;;;;;;18.36;59.39;102124.91;6236591;23;20008;-71
2023/09/25 10:03:24;;;;;;;3.22;1.60;;;;;;;18.41;61.58;102124.78;6185947;23;20070;-71
2023/09/25 10:05:50;;;;;;;3.53;1.90;;;;;;;18.41;59.68;102127.44;6211303;23;20385;-72
2023/09/25 10:08:17;;;;;;;3.15;2.00;;;;;;;18.41;59.91;102122.13;6210528;23;20042;-71
2023/09/25 10:10:48;;;;;;;3.95;1.85;;;;;;;18.30;59.08;102125.91;6209749;23;20112;-71
2023/09/25 10:13:28;;;;;;;2.97;1.65;;;;;;;18.41;61.56;102124.78;6209070;23;20015;-72
2023/09/25 10:16:01;;;;;;;4.28;2.17;;;;;;;18.62;59.54;102131.31;6211006;23;20088;-72
2023/09/25 10:18:30;;;;;;;3.40;1.90;;;;;;;18.76;59.78;102120.34;6161328;23;20013;-72
2023/09/25 10:21:10;;;;;;;3.78;1.77;;;;;;;18.76;58.78;102128.31;6185306;23;20104;-72
2023/09/25 10:23:39;;;;;;;3.90;1.90;;;;;;;18.65;59.97;102118.84;6210478;23;20112;-71
2023/09/25 10:26:15;;;;;;;4.28;1.95;;;;;;;18.62;60.17;102116.28;6186618;23;20008;-72
2023/09/25 10:28:41;;;;;;;4.15;2.17;;;;;;;18.70;62.19;102111.66;6210214;23;20062;-71
2023/09/25 10:31:21;;;;;;;2.58;1.67;;;;;;;18.83;62.03;102108.66;6185856;23;20423;-72
2023/09/25 10:34:13;;;;;;;4.90;2.10;;;;;;;18.91;59.69;102114.69;6210258;23;20008;-72
2023/09/25 10:36:47;;;;;;;3.17;1.88;;;;;;;18.77;60.64;102122.13;6229326;23;20012;-71
2023/09/25 10:39:16;;;;;;;3.60;1.88;;;;;;;18.86;59.14;102129.81;6186212;23;20443;-72
2023/09/25 10:41:42;;;;;;;3.97;2.08;;;;;;;19.05;59.56;102132.94;6211122;23;20012;-72
2023/09/25 10:44:12;;;;;;;4.47;2.00;;;;;;;19.12;58.92;102126.53;6161770;23;20016;-72
2023/09/25 10:46:40;;;;;;;3.25;1.80;;;;;;;19.27;59.52;102125.22;6210433;23;20008;-71
2023/09/25 10:49:06;;;;;;;3.72;1.85;;;;;;;19.43;62.45;102114.16;6184172;23;20444;-72
2023/09/25 10:51:35;;;;;;;3.90;1.55;;;;;;;19.39;58.47;102118.69;6185667;23;20004;-71
2023/09/25 10:54:02;;;;;;;3.35;1.98;;;;;;;19.44;58.82;102107.91;6235626;23;20039;-71
2023/09/25 10:56:28;;;;;;;4.47;1.90;;;;;;;19.51;59.66;102102.41;6211390;23;20108;-71
2023/09/25 10:58:54;;;;;;;4.00;1.80;;;;;;;19.71;60.53;102104.47;6211476;23;20483;-71
2023/09/25 11:01:30;;;;;;;4.10;1.77;;;;;;;19.59;59.53;102101.31;6210026;23;20012;-72
2023/09/25 11:03:59;;;;;;;3.63;2.00;;;;;;;19.54;58.72;102096.97;6210187;23;20292;-71
2023/09/25 11:06:25;;;;;;;3.95;2.00;;;;;;;19.47;59.03;102092.75;6210173;23;20446;-71
2023/09/25 11:09:05;;;;;;;3.70;1.75;;;;;;;19.49;59.93;102103.34;6234809;22;20005;-69
2023/09/25 11:11:37;;;;;;;5.07;1.85;;;;;;;19.67;60.13;102116.09;6236064;23;20035;-70
2023/09/25 11:14:21;;;;;;;2.65;1.70;;;;;;;19.62;59.51;102114.50;6161540;23;20021;-69
2023/09/25 11:16:46;;;;;;;3.65;1.83;;;;;;;19.84;59.15;102109.44;6210467;23;20008;-69
2023/09/25 11:19:14;;;;;;;3.30;1.65;;;;;;;19.97;58.79;102116.13;6209648;23;20389;-69
2023/09/25 11:21:40;;;;;;;3.20;1.80;;;;;;;20.10;59.90;102116.63;6210515;23;20005;-70
2023/09/25 11:24:10;;;;;;;3.25;1.50;;;;;;;20.32;60.56;102116.78;6186491;23;20083;-68
2023/09/25 11:26:37;;;;;;;4.43;1.70;;;;;;;20.20;55.24;102114.50;6210782;23;20004;-68